Weather at Kansai International Airport

Public forecast

Using degrees Celsius for public forecast. Weather courtesy of forecast.io.

Current aviation weather report (METAR) for Kansai International Airport

2024/05/29 22:00 (retrieved 18 minutes ago)

RJBB 292200Z 05007KT 9999 FEW030 18/13 Q1014 NOSIG

Aviation forecast (TAF) for Kansai International Airport

2024/05/29 18:28 (retrieved 4 hours ago)

TAF RJBB 291705Z 2918/3100 10004KT 9999 FEW030 BECMG 3000/3002 27006KT BECMG 3012/3015 12004KT